sensor_id;sensor_type;location;lat;lon;timestamp;temperature;humidity
1992;DHT22;997;48.448;8.924;2023-09-18T03:02:02;19.40;99.90
1992;DHT22;997;48.448;8.924;2023-09-18T03:04:29;19.40;99.90
1992;DHT22;997;48.448;8.924;2023-09-18T03:06:55;19.40;99.90
1992;DHT22;997;48.448;8.924;2023-09-18T03:09:21;19.50;99.90
1992;DHT22;997;48.448;8.924;2023-09-18T03:11:46;19.60;99.90
1992;DHT22;997;48.448;8.924;2023-09-18T03:14:12;19.60;99.90
1992;DHT22;997;48.448;8.924;2023-09-18T03:16:45;19.60;99.90
1992;DHT22;997;48.448;8.924;2023-09-18T03:19:11;19.60;99.90
1992;DHT22;997;48.448;8.924;2023-09-18T03:21:37;19.60;99.90
1992;DHT22;997;48.448;8.924;2023-09-18T03:24:03;19.50;99.90
1992;DHT22;997;48.448;8.924;2023-09-18T03:26:29;19.40;99.90
1992;DHT22;997;48.448;8.924;2023-09-18T03:28:55;19.40;99.90
1992;DHT22;997;48.448;8.924;2023-09-18T03:31:21;19.20;99.90
1992;DHT22;997;48.448;8.924;2023-09-18T03:33:46;19.10;99.90
1992;DHT22;997;48.448;8.924;2023-09-18T03:36:12;19.10;99.90
1992;DHT22;997;48.448;8.924;2023-09-18T03:38:39;18.90;99.90
1992;DHT22;997;48.448;8.924;2023-09-18T03:41:05;18.70;99.90
1992;DHT22;997;48.448;8.924;2023-09-18T03:43:30;18.70;99.90
1992;DHT22;997;48.448;8.924;2023-09-18T03:46:06;18.90;99.90
1992;DHT22;997;48.448;8.924;2023-09-18T03:48:33;18.90;99.90
1992;DHT22;997;48.448;8.924;2023-09-18T03:51:04;19.00;99.90
1992;DHT22;997;48.448;8.924;2023-09-18T03:53:30;19.00;99.90
1992;DHT22;997;48.448;8.924;2023-09-18T03:55:55;19.10;99.90
1992;DHT22;997;48.448;8.924;2023-09-18T03:58:21;19.20;99.90
1992;DHT22;997;48.448;8.924;2023-09-18T04:00:47;19.20;99.90
1992;DHT22;997;48.448;8.924;2023-09-18T04:03:12;19.40;99.90
1992;DHT22;997;48.448;8.924;2023-09-18T04:05:38;19.50;99.90
1992;DHT22;997;48.448;8.924;2023-09-18T04:08:04;19.60;99.90
1992;DHT22;997;48.448;8.924;2023-09-18T04:10:29;19.70;99.90
1992;DHT22;997;48.448;8.924;2023-09-18T04:12:55;19.80;99.90
1992;DHT22;997;48.448;8.924;2023-09-18T04:15:21;19.80;99.90
1992;DHT22;997;48.448;8.924;2023-09-18T04:17:48;20.00;99.90
1992;DHT22;997;48.448;8.924;2023-09-18T04:20:14;20.10;99.90
1992;DHT22;997;48.448;8.924;2023-09-18T04:22:43;20.00;99.90
1992;DHT22;997;48.448;8.924;2023-09-18T04:25:10;20.10;99.90
1992;DHT22;997;48.448;8.924;2023-09-18T04:27:36;20.20;99.90
1992;DHT22;997;48.448;8.924;2023-09-18T04:30:01;20.20;99.90
1992;DHT22;997;48.448;8.924;2023-09-18T04:32:27;20.30;99.90
1992;DHT22;997;48.448;8.924;2023-09-18T04:34:54;20.20;99.90
1992;DHT22;997;48.448;8.924;2023-09-18T04:37:20;20.30;99.90
1992;DHT22;997;48.448;8.924;2023-09-18T04:39:46;20.20;99.90
1992;DHT22;997;48.448;8.924;2023-09-18T04:42:11;20.10;99.90
1992;DHT22;997;48.448;8.924;2023-09-18T04:44:37;20.00;99.90
1992;DHT22;997;48.448;8.924;2023-09-18T04:47:03;19.90;99.90
1992;DHT22;997;48.448;8.924;2023-09-18T04:49:28;19.90;99.90
1992;DHT22;997;48.448;8.924;2023-09-18T04:51:55;19.80;99.90
1992;DHT22;997;48.448;8.924;2023-09-18T04:54:21;19.70;99.90
1992;DHT22;997;48.448;8.924;2023-09-18T04:56:46;19.80;99.90
1992;DHT22;997;48.448;8.924;2023-09-18T04:59:12;19.70;99.90
1992;DHT22;997;48.448;8.924;2023-09-18T05:01:38;19.70;99.90
1992;DHT22;997;48.448;8.924;2023-09-18T05:04:04;19.70;99.90
1992;DHT22;997;48.448;8.924;2023-09-18T05:06:29;19.70;99.90
1992;DHT22;997;48.448;8.924;2023-09-18T05:08:55;19.70;99.90
1992;DHT22;997;48.448;8.924;2023-09-18T05:11:21;19.70;99.90
1992;DHT22;997;48.448;8.924;2023-09-18T05:13:47;19.70;99.90
1992;DHT22;997;48.448;8.924;2023-09-18T05:16:12;19.70;99.90
1992;DHT22;997;48.448;8.924;2023-09-18T05:18:38;19.80;99.90
1992;DHT22;997;48.448;8.924;2023-09-18T05:21:06;19.90;99.90
1992;DHT22;997;48.448;8.924;2023-09-18T05:23:32;19.90;99.90
1992;DHT22;997;48.448;8.924;2023-09-18T05:25:57;19.70;99.90
1992;DHT22;997;48.448;8.924;2023-09-18T05:28:25;19.70;99.90
1992;DHT22;997;48.448;8.924;2023-09-18T05:30:50;19.70;99.90
1992;DHT22;997;48.448;8.924;2023-09-18T05:33:16;19.70;99.90
1992;DHT22;997;48.448;8.924;2023-09-18T05:35:43;19.80;99.90
1992;DHT22;997;48.448;8.924;2023-09-18T05:38:10;19.80;99.90
1992;DHT22;997;48.448;8.924;2023-09-18T05:40:36;19.90;99.90
1992;DHT22;997;48.448;8.924;2023-09-18T05:43:02;20.00;99.90
1992;DHT22;997;48.448;8.924;2023-09-18T05:45:28;20.00;99.90
1992;DHT22;997;48.448;8.924;2023-09-18T05:47:54;20.00;99.90
1992;DHT22;997;48.448;8.924;2023-09-18T05:50:27;20.00;99.90
1992;DHT22;997;48.448;8.924;2023-09-18T05:52:55;20.00;99.90
1992;DHT22;997;48.448;8.924;2023-09-18T05:55:25;20.00;99.90
1992;DHT22;997;48.448;8.924;2023-09-18T05:57:50;19.90;99.90
1992;DHT22;997;48.448;8.924;2023-09-18T06:00:16;19.90;99.90
1992;DHT22;997;48.448;8.924;2023-09-18T06:02:43;20.00;99.90
1992;DHT22;997;48.448;8.924;2023-09-18T06:05:11;20.00;99.90
1992;DHT22;997;48.448;8.924;2023-09-18T06:07:37;20.10;99.90
1992;DHT22;997;48.448;8.924;2023-09-18T06:10:03;20.10;99.90
1992;DHT22;997;48.448;8.924;2023-09-18T06:12:29;20.10;99.90
1992;DHT22;997;48.448;8.924;2023-09-18T06:14:55;20.10;99.90
1992;DHT22;997;48.448;8.924;2023-09-18T06:17:21;20.10;99.90
1992;DHT22;997;48.448;8.924;2023-09-18T06:19:47;20.30;99.90
1992;DHT22;997;48.448;8.924;2023-09-18T06:22:13;20.40;99.90
1992;DHT22;997;48.448;8.924;2023-09-18T06:24:39;20.40;99.90
1992;DHT22;997;48.448;8.924;2023-09-18T06:27:05;20.30;99.90
1992;DHT22;997;48.448;8.924;2023-09-18T06:29:32;20.20;99.90
1992;DHT22;997;48.448;8.924;2023-09-18T06:31:58;20.10;99.90
1992;DHT22;997;48.448;8.924;2023-09-18T06:34:24;19.80;99.90
1992;DHT22;997;48.448;8.924;2023-09-18T06:36:50;19.70;99.90
1992;DHT22;997;48.448;8.924;2023-09-18T06:39:16;19.70;99.90
1992;DHT22;997;48.448;8.924;2023-09-18T06:41:42;19.60;99.90
1992;DHT22;997;48.448;8.924;2023-09-18T06:44:07;19.60;99.90
1992;DHT22;997;48.448;8.924;2023-09-18T06:46:33;19.60;99.90
1992;DHT22;997;48.448;8.924;2023-09-18T06:48:58;19.60;99.90
1992;DHT22;997;48.448;8.924;2023-09-18T06:51:27;19.50;99.90
1992;DHT22;997;48.448;8.924;2023-09-18T06:53:55;19.70;99.90
1992;DHT22;997;48.448;8.924;2023-09-18T06:56:23;19.80;99.90
1992;DHT22;997;48.448;8.924;2023-09-18T06:58:49;19.90;99.90
1992;DHT22;997;48.448;8.924;2023-09-18T07:01:20;20.00;99.90
1992;DHT22;997;48.448;8.924;2023-09-18T07:03:46;20.10;99.90
1992;DHT22;997;48.448;8.924;2023-09-18T07:06:14;20.20;99.90
1992;DHT22;997;48.448;8.924;2023-09-18T07:08:44;20.20;99.90
1992;DHT22;997;48.448;8.924;2023-09-18T07:11:10;20.00;99.90
1992;DHT22;997;48.448;8.924;2023-09-18T07:13:37;20.10;99.90
1992;DHT22;997;48.448;8.924;2023-09-18T07:16:03;20.10;99.90
1992;DHT22;997;48.448;8.924;2023-09-18T07:18:29;20.20;99.90
1992;DHT22;997;48.448;8.924;2023-09-18T07:20:54;20.20;99.90
1992;DHT22;997;48.448;8.924;2023-09-18T07:23:20;20.10;99.90
1992;DHT22;997;48.448;8.924;2023-09-18T07:25:48;20.20;99.90
1992;DHT22;997;48.448;8.924;2023-09-18T07:28:13;20.10;99.90
1992;DHT22;997;48.448;8.924;2023-09-18T07:30:43;20.00;99.90
1992;DHT22;997;48.448;8.924;2023-09-18T07:33:10;20.00;99.90
1992;DHT22;997;48.448;8.924;2023-09-18T07:35:36;20.00;99.90
1992;DHT22;997;48.448;8.924;2023-09-18T07:38:01;20.00;99.90
1992;DHT22;997;48.448;8.924;2023-09-18T07:40:27;19.90;99.90
1992;DHT22;997;48.448;8.924;2023-09-18T07:42:53;19.70;99.90
1992;DHT22;997;48.448;8.924;2023-09-18T07:45:19;19.80;99.90
1992;DHT22;997;48.448;8.924;2023-09-18T07:47:44;19.70;99.90
1992;DHT22;997;48.448;8.924;2023-09-18T07:50:10;19.80;99.90
1992;DHT22;997;48.448;8.924;2023-09-18T07:52:36;19.80;99.90
1992;DHT22;997;48.448;8.924;2023-09-18T07:55:02;19.90;99.90
1992;DHT22;997;48.448;8.924;2023-09-18T07:57:28;19.90;99.90
1992;DHT22;997;48.448;8.924;2023-09-18T07:59:55;19.70;99.90
1992;DHT22;997;48.448;8.924;2023-09-18T08:02:21;19.60;99.90
1992;DHT22;997;48.448;8.924;2023-09-18T08:04:48;19.40;99.90
1992;DHT22;997;48.448;8.924;2023-09-18T08:07:13;19.30;99.90
1992;DHT22;997;48.448;8.924;2023-09-18T08:09:39;19.10;99.90
1992;DHT22;997;48.448;8.924;2023-09-18T08:12:07;18.90;99.90
1992;DHT22;997;48.448;8.924;2023-09-18T08:14:34;18.90;99.90
1992;DHT22;997;48.448;8.924;2023-09-18T08:17:02;18.80;99.90
1992;DHT22;997;48.448;8.924;2023-09-18T08:19:30;18.80;99.90
1992;DHT22;997;48.448;8.924;2023-09-18T08:21:58;18.80;99.90
1992;DHT22;997;48.448;8.924;2023-09-18T08:24:25;18.70;99.90
1992;DHT22;997;48.448;8.924;2023-09-18T08:26:51;18.70;99.90
1992;DHT22;997;48.448;8.924;2023-09-18T08:29:17;18.70;99.90
1992;DHT22;997;48.448;8.924;2023-09-18T08:31:43;18.70;99.90
1992;DHT22;997;48.448;8.924;2023-09-18T08:34:09;18.70;99.90
1992;DHT22;997;48.448;8.924;2023-09-18T08:36:35;18.70;99.90
1992;DHT22;997;48.448;8.924;2023-09-18T08:39:01;18.70;99.90
1992;DHT22;997;48.448;8.924;2023-09-18T08:41:28;18.70;99.90
1992;DHT22;997;48.448;8.924;2023-09-18T08:44:02;18.70;99.90
1992;DHT22;997;48.448;8.924;2023-09-18T08:46:30;18.70;99.90
1992;DHT22;997;48.448;8.924;2023-09-18T08:48:57;18.70;99.90
1992;DHT22;997;48.448;8.924;2023-09-18T08:51:24;18.70;99.90
1992;DHT22;997;48.448;8.924;2023-09-18T08:53:50;18.70;99.90
1992;DHT22;997;48.448;8.924;2023-09-18T08:56:17;18.80;99.90
1992;DHT22;997;48.448;8.924;2023-09-18T08:58:44;18.70;99.90
1992;DHT22;997;48.448;8.924;2023-09-18T09:01:11;18.70;99.90
1992;DHT22;997;48.448;8.924;2023-09-18T09:03:41;18.70;99.90
1992;DHT22;997;48.448;8.924;2023-09-18T09:06:13;18.70;99.90
1992;DHT22;997;48.448;8.924;2023-09-18T09:08:39;18.80;99.90
1992;DHT22;997;48.448;8.924;2023-09-18T09:11:05;18.70;99.90
1992;DHT22;997;48.448;8.924;2023-09-18T09:13:31;18.70;99.90
1992;DHT22;997;48.448;8.924;2023-09-18T09:15:58;18.80;99.90
1992;DHT22;997;48.448;8.924;2023-09-18T09:18:26;18.80;99.90
1992;DHT22;997;48.448;8.924;2023-09-18T09:20:56;18.90;99.90
1992;DHT22;997;48.448;8.924;2023-09-18T09:23:29;18.90;99.90
1992;DHT22;997;48.448;8.924;2023-09-18T09:26:15;18.90;99.90
1992;DHT22;997;48.448;8.924;2023-09-18T09:28:43;18.90;99.90
1992;DHT22;997;48.448;8.924;2023-09-18T09:31:09;18.80;99.90
1992;DHT22;997;48.448;8.924;2023-09-18T09:33:50;18.90;99.90
1992;DHT22;997;48.448;8.924;2023-09-18T09:36:20;19.00;99.90
1992;DHT22;997;48.448;8.924;2023-09-18T09:38:46;19.00;99.90
1992;DHT22;997;48.448;8.924;2023-09-18T09:41:15;19.10;99.90
1992;DHT22;997;48.448;8.924;2023-09-18T09:43:43;19.10;99.90
1992;DHT22;997;48.448;8.924;2023-09-18T09:46:15;19.00;99.90
1992;DHT22;997;48.448;8.924;2023-09-18T09:49:04;19.00;99.90
1992;DHT22;997;48.448;8.924;2023-09-18T09:51:30;19.10;99.90
1992;DHT22;997;48.448;8.924;2023-09-18T09:53:57;19.10;99.90
1992;DHT22;997;48.448;8.924;2023-09-18T09:59:05;19.20;99.90
1992;DHT22;997;48.448;8.924;2023-09-18T10:01:35;19.30;99.90
1992;DHT22;997;48.448;8.924;2023-09-18T10:04:08;19.30;99.90
1992;DHT22;997;48.448;8.924;2023-09-18T10:06:35;19.20;99.90
1992;DHT22;997;48.448;8.924;2023-09-18T10:09:06;19.20;99.90
1992;DHT22;997;48.448;8.924;2023-09-18T10:11:34;19.20;99.90
1992;DHT22;997;48.448;8.924;2023-09-18T10:14:09;19.10;99.90
1992;DHT22;997;48.448;8.924;2023-09-18T10:16:40;19.10;99.90
1992;DHT22;997;48.448;8.924;2023-09-18T10:24:33;19.10;99.90
1992;DHT22;997;48.448;8.924;2023-09-18T10:27:03;19.10;99.90
1992;DHT22;997;48.448;8.924;2023-09-18T10:29:30;19.20;99.90
1992;DHT22;997;48.448;8.924;2023-09-18T10:31:56;19.20;99.90
1992;DHT22;997;48.448;8.924;2023-09-18T10:34:23;19.30;99.90
1992;DHT22;997;48.448;8.924;2023-09-18T10:36:54;19.20;99.90
1992;DHT22;997;48.448;8.924;2023-09-18T10:39:24;19.20;99.90
1992;DHT22;997;48.448;8.924;2023-09-18T10:41:53;19.20;99.90
1992;DHT22;997;48.448;8.924;2023-09-18T10:44:19;19.30;99.90
1992;DHT22;997;48.448;8.924;2023-09-18T10:46:50;19.40;99.90
1992;DHT22;997;48.448;8.924;2023-09-18T10:49:17;19.40;99.90
1992;DHT22;997;48.448;8.924;2023-09-18T10:51:43;19.40;99.90
1992;DHT22;997;48.448;8.924;2023-09-18T10:54:21;19.50;99.90
1992;DHT22;997;48.448;8.924;2023-09-18T10:56:47;19.60;99.90
1992;DHT22;997;48.448;8.924;2023-09-18T10:59:14;19.60;99.90
1992;DHT22;997;48.448;8.924;2023-09-18T11:01:41;19.50;99.90
1992;DHT22;997;48.448;8.924;2023-09-18T11:04:08;19.70;99.90
1992;DHT22;997;48.448;8.924;2023-09-18T11:11:46;19.80;99.90
1992;DHT22;997;48.448;8.924;2023-09-18T11:14:14;19.80;99.90
1992;DHT22;997;48.448;8.924;2023-09-18T11:16:41;19.80;99.90
1992;DHT22;997;48.448;8.924;2023-09-18T11:19:11;19.80;99.90
1992;DHT22;997;48.448;8.924;2023-09-18T11:21:38;19.70;99.90
1992;DHT22;997;48.448;8.924;2023-09-18T11:24:06;19.70;99.90
1992;DHT22;997;48.448;8.924;2023-09-18T11:26:37;19.70;99.90
1992;DHT22;997;48.448;8.924;2023-09-18T11:29:15;19.70;99.90
1992;DHT22;997;48.448;8.924;2023-09-18T11:31:42;19.80;99.90
1992;DHT22;997;48.448;8.924;2023-09-18T11:34:12;19.70;99.90
1992;DHT22;997;48.448;8.924;2023-09-18T11:36:38;19.60;99.90
1992;DHT22;997;48.448;8.924;2023-09-18T11:39:04;19.60;99.90
1992;DHT22;997;48.448;8.924;2023-09-18T11:41:34;19.50;99.90
1992;DHT22;997;48.448;8.924;2023-09-18T11:46:49;19.40;99.90
1992;DHT22;997;48.448;8.924;2023-09-18T11:49:22;19.30;99.90
1992;DHT22;997;48.448;8.924;2023-09-18T11:51:48;19.40;99.90
1992;DHT22;997;48.448;8.924;2023-09-18T11:54:15;19.40;99.90
1992;DHT22;997;48.448;8.924;2023-09-18T11:56:42;19.40;99.90
1992;DHT22;997;48.448;8.924;2023-09-18T11:59:08;19.40;99.90
1992;DHT22;997;48.448;8.924;2023-09-18T12:01:36;19.40;99.90
1992;DHT22;997;48.448;8.924;2023-09-18T12:04:03;19.40;99.90
1992;DHT22;997;48.448;8.924;2023-09-18T12:06:35;19.50;99.90
1992;DHT22;997;48.448;8.924;2023-09-18T12:09:03;19.40;99.90
1992;DHT22;997;48.448;8.924;2023-09-18T12:11:29;19.50;99.90
1992;DHT22;997;48.448;8.924;2023-09-18T12:13:55;19.40;99.90
1992;DHT22;997;48.448;8.924;2023-09-18T12:16:21;19.50;99.90
1992;DHT22;997;48.448;8.924;2023-09-18T12:18:48;19.70;99.90
1992;DHT22;997;48.448;8.924;2023-09-18T12:21:14;19.90;99.90
1992;DHT22;997;48.448;8.924;2023-09-18T12:23:41;20.20;99.90
1992;DHT22;997;48.448;8.924;2023-09-18T12:26:15;20.30;99.90
1992;DHT22;997;48.448;8.924;2023-09-18T12:28:42;20.50;99.90
1992;DHT22;997;48.448;8.924;2023-09-18T12:31:15;20.60;99.90
1992;DHT22;997;48.448;8.924;2023-09-18T12:33:42;20.60;99.90
1992;DHT22;997;48.448;8.924;2023-09-18T12:36:18;20.60;99.90
1992;DHT22;997;48.448;8.924;2023-09-18T12:38:45;20.60;99.90
1992;DHT22;997;48.448;8.924;2023-09-18T12:41:20;20.60;99.90
1992;DHT22;997;48.448;8.924;2023-09-18T12:43:46;20.50;99.90
1992;DHT22;997;48.448;8.924;2023-09-18T12:46:12;20.70;99.90
1992;DHT22;997;48.448;8.924;2023-09-18T12:48:40;20.70;99.90
1992;DHT22;997;48.448;8.924;2023-09-18T12:51:11;20.80;99.90
1992;DHT22;997;48.448;8.924;2023-09-18T12:53:37;20.80;99.90
1992;DHT22;997;48.448;8.924;2023-09-18T12:56:13;20.80;99.90
1992;DHT22;997;48.448;8.924;2023-09-18T12:58:42;20.80;99.90
1992;DHT22;997;48.448;8.924;2023-09-18T13:01:10;20.90;99.90
1992;DHT22;997;48.448;8.924;2023-09-18T13:03:44;21.00;99.90
1992;DHT22;997;48.448;8.924;2023-09-18T13:06:17;21.10;99.90
1992;DHT22;997;48.448;8.924;2023-09-18T13:08:44;21.10;99.90
1992;DHT22;997;48.448;8.924;2023-09-18T13:11:10;21.10;99.90
1992;DHT22;997;48.448;8.924;2023-09-18T13:13:40;21.30;99.90
1992;DHT22;997;48.448;8.924;2023-09-18T13:16:08;21.40;99.90
1992;DHT22;997;48.448;8.924;2023-09-18T13:18:37;21.40;99.90
1992;DHT22;997;48.448;8.924;2023-09-18T13:21:12;21.50;99.90
1992;DHT22;997;48.448;8.924;2023-09-18T13:23:39;21.50;99.90
1992;DHT22;997;48.448;8.924;2023-09-18T13:26:07;21.60;99.90
1992;DHT22;997;48.448;8.924;2023-09-18T13:28:34;21.50;99.90
1992;DHT22;997;48.448;8.924;2023-09-18T13:31:04;21.50;99.90
1992;DHT22;997;48.448;8.924;2023-09-18T13:33:31;21.30;99.90
1992;DHT22;997;48.448;8.924;2023-09-18T13:35:59;21.20;99.90
1992;DHT22;997;48.448;8.924;2023-09-18T13:38:25;21.10;99.90
1992;DHT22;997;48.448;8.924;2023-09-18T13:40:54;21.00;99.90
1992;DHT22;997;48.448;8.924;2023-09-18T13:43:20;21.10;99.90
1992;DHT22;997;48.448;8.924;2023-09-18T13:45:48;21.10;99.90
1992;DHT22;997;48.448;8.924;2023-09-18T13:48:17;21.10;99.90
1992;DHT22;997;48.448;8.924;2023-09-18T13:50:43;21.10;99.90
1992;DHT22;997;48.448;8.924;2023-09-18T13:53:09;21.30;99.90
1992;DHT22;997;48.448;8.924;2023-09-18T13:55:35;21.30;99.90
1992;DHT22;997;48.448;8.924;2023-09-18T13:58:01;21.40;99.90
1992;DHT22;997;48.448;8.924;2023-09-18T14:00:29;21.50;99.90
1992;DHT22;997;48.448;8.924;2023-09-18T14:02:54;21.50;99.90
1992;DHT22;997;48.448;8.924;2023-09-18T14:05:20;21.40;99.90
1992;DHT22;997;48.448;8.924;2023-09-18T14:07:46;21.50;99.90
1992;DHT22;997;48.448;8.924;2023-09-18T14:10:14;21.40;99.90
1992;DHT22;997;48.448;8.924;2023-09-18T14:12:41;21.40;99.90
1992;DHT22;997;48.448;8.924;2023-09-18T14:15:08;21.30;99.90
1992;DHT22;997;48.448;8.924;2023-09-18T14:17:34;21.20;99.90
1992;DHT22;997;48.448;8.924;2023-09-18T14:20:00;21.20;99.90
1992;DHT22;997;48.448;8.924;2023-09-18T14:22:26;21.20;99.90
1992;DHT22;997;48.448;8.924;2023-09-18T14:24:52;21.20;99.90
1992;DHT22;997;48.448;8.924;2023-09-18T14:27:18;21.10;99.90
1992;DHT22;997;48.448;8.924;2023-09-18T14:29:45;21.10;99.90
1992;DHT22;997;48.448;8.924;2023-09-18T14:32:10;21.10;99.90
1992;DHT22;997;48.448;8.924;2023-09-18T14:34:37;21.10;99.90
1992;DHT22;997;48.448;8.924;2023-09-18T14:37:03;21.00;99.90
1992;DHT22;997;48.448;8.924;2023-09-18T14:39:32;21.10;99.90
1992;DHT22;997;48.448;8.924;2023-09-18T14:41:58;21.10;99.90
1992;DHT22;997;48.448;8.924;2023-09-18T14:44:25;21.10;99.90
1992;DHT22;997;48.448;8.924;2023-09-18T14:46:53;21.10;99.90
1992;DHT22;997;48.448;8.924;2023-09-18T14:49:19;21.20;99.90
1992;DHT22;997;48.448;8.924;2023-09-18T14:51:45;21.20;99.90
1992;DHT22;997;48.448;8.924;2023-09-18T14:54:11;21.10;99.90
1992;DHT22;997;48.448;8.924;2023-09-18T14:56:36;21.10;99.90
1992;DHT22;997;48.448;8.924;2023-09-18T14:59:03;21.10;99.90
1992;DHT22;997;48.448;8.924;2023-09-18T15:01:30;21.10;99.90
1992;DHT22;997;48.448;8.924;2023-09-18T15:03:56;21.10;99.90
1992;DHT22;997;48.448;8.924;2023-09-18T15:06:21;21.10;99.90
1992;DHT22;997;48.448;8.924;2023-09-18T15:08:47;21.00;99.90
1992;DHT22;997;48.448;8.924;2023-09-18T15:11:13;21.00;99.90
1992;DHT22;997;48.448;8.924;2023-09-18T15:13:42;21.00;99.90
1992;DHT22;997;48.448;8.924;2023-09-18T15:16:08;21.10;99.90
1992;DHT22;997;48.448;8.924;2023-09-18T15:18:34;21.10;99.90
1992;DHT22;997;48.448;8.924;2023-09-18T15:21:01;21.30;99.90
1992;DHT22;997;48.448;8.924;2023-09-18T15:23:27;21.30;99.90
1992;DHT22;997;48.448;8.924;2023-09-18T15:25:55;21.30;99.90
1992;DHT22;997;48.448;8.924;2023-09-18T15:28:21;21.40;99.90
1992;DHT22;997;48.448;8.924;2023-09-18T15:30:49;21.40;99.90
1992;DHT22;997;48.448;8.924;2023-09-18T15:33:15;21.40;99.90
1992;DHT22;997;48.448;8.924;2023-09-18T15:35:43;21.30;99.90
1992;DHT22;997;48.448;8.924;2023-09-18T15:38:08;21.30;99.90
1992;DHT22;997;48.448;8.924;2023-09-18T15:40:34;21.30;99.90
1992;DHT22;997;48.448;8.924;2023-09-18T15:43:00;21.30;99.90
1992;DHT22;997;48.448;8.924;2023-09-18T15:45:25;21.10;99.90
1992;DHT22;997;48.448;8.924;2023-09-18T15:47:51;21.00;99.90
1992;DHT22;997;48.448;8.924;2023-09-18T15:50:17;21.30;99.90
1992;DHT22;997;48.448;8.924;2023-09-18T15:52:43;21.40;99.90
1992;DHT22;997;48.448;8.924;2023-09-18T15:55:09;21.50;99.90
1992;DHT22;997;48.448;8.924;2023-09-18T15:57:36;21.60;99.90
1992;DHT22;997;48.448;8.924;2023-09-18T16:00:03;21.60;99.90
1992;DHT22;997;48.448;8.924;2023-09-18T16:02:30;21.60;99.90
1992;DHT22;997;48.448;8.924;2023-09-18T16:04:57;21.70;99.90
1992;DHT22;997;48.448;8.924;2023-09-18T16:07:23;21.70;99.90
1992;DHT22;997;48.448;8.924;2023-09-18T16:09:48;21.60;99.90
1992;DHT22;997;48.448;8.924;2023-09-18T16:12:15;21.60;99.90
1992;DHT22;997;48.448;8.924;2023-09-18T16:14:41;21.50;99.90
1992;DHT22;997;48.448;8.924;2023-09-18T16:17:07;21.50;99.90
1992;DHT22;997;48.448;8.924;2023-09-18T16:19:33;21.40;99.90
1992;DHT22;997;48.448;8.924;2023-09-18T16:21:59;21.40;99.90
1992;DHT22;997;48.448;8.924;2023-09-18T16:24:25;21.30;99.90
1992;DHT22;997;48.448;8.924;2023-09-18T16:26:52;21.20;99.90
1992;DHT22;997;48.448;8.924;2023-09-18T16:29:18;21.10;99.90
1992;DHT22;997;48.448;8.924;2023-09-18T16:31:44;21.10;99.90
1992;DHT22;997;48.448;8.924;2023-09-18T16:34:10;21.00;99.90
1992;DHT22;997;48.448;8.924;2023-09-18T16:36:35;21.10;99.90
1992;DHT22;997;48.448;8.924;2023-09-18T16:39:01;21.20;99.90
1992;DHT22;997;48.448;8.924;2023-09-18T16:41:27;21.10;99.90
1992;DHT22;997;48.448;8.924;2023-09-18T16:43:53;21.00;99.90
1992;DHT22;997;48.448;8.924;2023-09-18T16:46:19;21.00;99.90
1992;DHT22;997;48.448;8.924;2023-09-18T16:48:44;20.90;99.90
1992;DHT22;997;48.448;8.924;2023-09-18T16:51:10;20.90;99.90
1992;DHT22;997;48.448;8.924;2023-09-18T16:53:37;20.90;99.90
1992;DHT22;997;48.448;8.924;2023-09-18T16:56:03;20.90;99.90
1992;DHT22;997;48.448;8.924;2023-09-18T16:58:29;20.90;99.90
1992;DHT22;997;48.448;8.924;2023-09-18T17:00:56;20.80;99.90
1992;DHT22;997;48.448;8.924;2023-09-18T17:03:22;20.80;99.90
1992;DHT22;997;48.448;8.924;2023-09-18T17:05:47;20.80;99.90
1992;DHT22;997;48.448;8.924;2023-09-18T17:08:24;20.80;99.90
1992;DHT22;997;48.448;8.924;2023-09-18T17:10:50;20.70;99.90
1992;DHT22;997;48.448;8.924;2023-09-18T17:13:16;20.50;99.90
1992;DHT22;997;48.448;8.924;2023-09-18T17:15:41;20.40;99.90
1992;DHT22;997;48.448;8.924;2023-09-18T17:18:07;20.30;99.90
1992;DHT22;997;48.448;8.924;2023-09-18T17:20:33;20.30;99.90
1992;DHT22;997;48.448;8.924;2023-09-18T17:22:59;20.20;99.90
1992;DHT22;997;48.448;8.924;2023-09-18T17:25:24;20.10;99.90
1992;DHT22;997;48.448;8.924;2023-09-18T17:27:51;20.00;99.90
1992;DHT22;997;48.448;8.924;2023-09-18T17:30:17;19.90;99.90
1992;DHT22;997;48.448;8.924;2023-09-18T17:32:42;19.90;99.90
1992;DHT22;997;48.448;8.924;2023-09-18T17:35:08;19.80;99.90
1992;DHT22;997;48.448;8.924;2023-09-18T17:37:35;19.80;99.90
1992;DHT22;997;48.448;8.924;2023-09-18T17:40:01;19.80;99.90
1992;DHT22;997;48.448;8.924;2023-09-18T17:42:27;19.70;99.90
1992;DHT22;997;48.448;8.924;2023-09-18T17:44:53;19.70;99.90
1992;DHT22;997;48.448;8.924;2023-09-18T17:47:19;19.70;99.90
1992;DHT22;997;48.448;8.924;2023-09-18T17:49:44;19.70;99.90
1992;DHT22;997;48.448;8.924;2023-09-18T17:52:10;19.60;99.90
1992;DHT22;997;48.448;8.924;2023-09-18T17:54:38;19.60;99.90
1992;DHT22;997;48.448;8.924;2023-09-18T17:57:04;19.60;99.90
1992;DHT22;997;48.448;8.924;2023-09-18T17:59:31;19.50;99.90
1992;DHT22;997;48.448;8.924;2023-09-18T18:01:57;19.50;99.90
1992;DHT22;997;48.448;8.924;2023-09-18T18:04:23;19.50;99.90
1992;DHT22;997;48.448;8.924;2023-09-18T18:06:49;19.50;99.90
1992;DHT22;997;48.448;8.924;2023-09-18T18:09:16;19.40;99.90
1992;DHT22;997;48.448;8.924;2023-09-18T18:11:42;19.40;99.90
1992;DHT22;997;48.448;8.924;2023-09-18T18:14:08;19.40;99.90
1992;DHT22;997;48.448;8.924;2023-09-18T18:16:34;19.40;99.90
1992;DHT22;997;48.448;8.924;2023-09-18T18:19:00;19.40;99.90
1992;DHT22;997;48.448;8.924;2023-09-18T18:21:26;19.40;99.90
1992;DHT22;997;48.448;8.924;2023-09-18T18:23:52;19.40;99.90
1992;DHT22;997;48.448;8.924;2023-09-18T18:26:19;19.40;99.90
1992;DHT22;997;48.448;8.924;2023-09-18T18:28:46;19.40;99.90
1992;DHT22;997;48.448;8.924;2023-09-18T18:31:12;19.40;99.90
1992;DHT22;997;48.448;8.924;2023-09-18T18:33:38;19.50;99.90
1992;DHT22;997;48.448;8.924;2023-09-18T18:36:04;19.50;99.90
1992;DHT22;997;48.448;8.924;2023-09-18T18:38:30;19.50;99.90
1992;DHT22;997;48.448;8.924;2023-09-18T18:40:57;19.40;99.90
1992;DHT22;997;48.448;8.924;2023-09-18T18:43:23;19.40;99.90
1992;DHT22;997;48.448;8.924;2023-09-18T18:45:54;19.20;99.90
1992;DHT22;997;48.448;8.924;2023-09-18T18:48:24;19.20;99.90
1992;DHT22;997;48.448;8.924;2023-09-18T18:50:51;19.10;99.90
1992;DHT22;997;48.448;8.924;2023-09-18T18:53:17;19.00;99.90
1992;DHT22;997;48.448;8.924;2023-09-18T18:55:47;19.00;99.90
1992;DHT22;997;48.448;8.924;2023-09-18T18:58:13;18.90;99.90
1992;DHT22;997;48.448;8.924;2023-09-18T19:00:39;19.00;99.90
1992;DHT22;997;48.448;8.924;2023-09-18T19:03:05;18.90;99.90
1992;DHT22;997;48.448;8.924;2023-09-18T19:05:34;19.00;99.90
1992;DHT22;997;48.448;8.924;2023-09-18T19:08:02;19.00;99.90
1992;DHT22;997;48.448;8.924;2023-09-18T19:10:29;19.20;99.90
1992;DHT22;997;48.448;8.924;2023-09-18T19:12:54;19.20;99.90
1992;DHT22;997;48.448;8.924;2023-09-18T19:15:23;19.20;99.90
1992;DHT22;997;48.448;8.924;2023-09-18T19:17:51;19.50;99.90
1992;DHT22;997;48.448;8.924;2023-09-18T19:20:17;19.70;99.90
1992;DHT22;997;48.448;8.924;2023-09-18T19:22:43;19.70;99.90
1992;DHT22;997;48.448;8.924;2023-09-18T19:25:09;19.80;99.90
1992;DHT22;997;48.448;8.924;2023-09-18T19:27:35;19.80;99.90
1992;DHT22;997;48.448;8.924;2023-09-18T19:30:06;19.70;99.90
1992;DHT22;997;48.448;8.924;2023-09-18T19:32:34;19.50;99.90